createdAt,value
2023-03-18T00:00:31.613Z,1007.55
2023-03-18T00:01:31.479Z,1007.50
2023-03-18T00:02:31.455Z,1007.48
2023-03-18T00:03:31.446Z,1007.50
2023-03-18T00:04:31.403Z,1007.48
2023-03-18T00:05:31.398Z,1007.52
2023-03-18T00:06:31.362Z,1007.52
2023-03-18T00:07:31.365Z,1007.50
2023-03-18T00:08:31.320Z,1007.46
2023-03-18T00:09:31.307Z,1007.44
2023-03-18T00:10:31.491Z,1007.48
2023-03-18T00:11:31.327Z,1007.44
2023-03-18T00:12:31.287Z,1007.40
2023-03-18T00:13:31.265Z,1007.41
2023-03-18T00:14:31.245Z,1007.42
2023-03-18T00:15:31.256Z,1007.43
2023-03-18T00:16:31.241Z,1007.44
2023-03-18T00:17:31.283Z,1007.41
2023-03-18T00:18:31.208Z,1007.38
2023-03-18T00:19:31.190Z,1007.34
2023-03-18T00:20:31.397Z,1007.38
2023-03-18T00:21:31.173Z,1007.39
2023-03-18T00:22:31.118Z,1007.39
2023-03-18T00:23:31.188Z,1007.45
2023-03-18T00:24:31.131Z,1007.45
2023-03-18T00:25:31.088Z,1007.48
2023-03-18T00:26:31.070Z,1007.47
2023-03-18T00:27:31.059Z,1007.50
2023-03-18T00:28:31.051Z,1007.56
2023-03-18T00:29:31.086Z,1007.55
2023-03-18T00:30:31.292Z,1007.57
2023-03-18T00:31:31.051Z,1007.55
2023-03-18T00:32:31.017Z,1007.58
2023-03-18T00:33:30.994Z,1007.60
2023-03-18T00:34:30.950Z,1007.57
2023-03-18T00:35:31.015Z,1007.59
2023-03-18T00:36:30.975Z,1007.62
2023-03-18T00:37:30.932Z,1007.66
2023-03-18T00:38:30.914Z,1007.67
2023-03-18T00:39:30.905Z,1007.68
2023-03-18T00:40:31.342Z,1007.67
2023-03-18T00:41:30.846Z,1007.69
2023-03-18T00:42:30.848Z,1007.61
2023-03-18T00:43:30.834Z,1007.60
2023-03-18T00:44:30.810Z,1007.61
2023-03-18T00:45:30.820Z,1007.61
2023-03-18T00:46:30.838Z,1007.60
2023-03-18T00:47:30.758Z,1007.57
2023-03-18T00:48:30.778Z,1007.56
2023-03-18T00:49:30.747Z,1007.56
2023-03-18T00:50:30.970Z,1007.57
2023-03-18T00:51:30.716Z,1007.57
2023-03-18T00:52:32.306Z,1007.59
2023-03-18T00:53:30.677Z,1007.58
2023-03-18T00:54:30.679Z,1007.59
2023-03-18T00:55:30.646Z,1007.61
2023-03-18T00:56:30.626Z,1007.66
2023-03-18T00:57:30.640Z,1007.61
2023-03-18T00:58:30.601Z,1007.58
2023-03-18T00:59:30.629Z,1007.58
2023-03-18T01:00:30.772Z,1007.53
2023-03-18T01:01:30.551Z,1007.52
2023-03-18T01:02:30.572Z,1007.53
2023-03-18T01:03:30.535Z,1007.50
2023-03-18T01:04:30.528Z,1007.50
2023-03-18T01:05:30.506Z,1007.51
2023-03-18T01:06:30.488Z,1007.51
2023-03-18T01:07:30.489Z,1007.44
2023-03-18T01:08:30.480Z,1007.42
2023-03-18T01:09:30.440Z,1007.44
2023-03-18T01:10:30.847Z,1007.44
2023-03-18T01:11:30.445Z,1007.52
2023-03-18T01:12:30.429Z,1007.60
2023-03-18T01:13:30.386Z,1007.59
2023-03-18T01:14:30.368Z,1007.59
2023-03-18T01:15:30.398Z,1007.61
2023-03-18T01:16:30.396Z,1007.62
2023-03-18T01:17:30.360Z,1007.60
2023-03-18T01:18:30.316Z,1007.60
2023-03-18T01:19:30.299Z,1007.64
2023-03-18T01:20:30.599Z,1007.62
2023-03-18T01:21:30.288Z,1007.64
2023-03-18T01:22:30.244Z,1007.67
2023-03-18T01:23:30.253Z,1007.61
2023-03-18T01:24:30.223Z,1007.68
2023-03-18T01:25:30.223Z,1007.71
2023-03-18T01:26:30.219Z,1007.72
2023-03-18T01:27:30.177Z,1007.73
2023-03-18T01:28:30.183Z,1007.71
2023-03-18T01:29:30.141Z,1007.70
2023-03-18T01:30:30.360Z,1007.73
2023-03-18T01:31:30.196Z,1007.67
2023-03-18T01:32:30.157Z,1007.68
2023-03-18T01:33:30.169Z,1007.64
2023-03-18T01:34:30.060Z,1007.65
2023-03-18T01:35:30.145Z,1007.66
2023-03-18T01:36:30.031Z,1007.62
2023-03-18T01:37:30.044Z,1007.65
2023-03-18T01:38:30.025Z,1007.68
2023-03-18T01:39:30.037Z,1007.69
2023-03-18T01:40:30.137Z,1007.71
2023-03-18T01:41:29.976Z,1007.68
2023-03-18T01:42:29.969Z,1007.73
2023-03-18T01:43:29.950Z,1007.70
2023-03-18T01:44:29.948Z,1007.75
2023-03-18T01:45:29.961Z,1007.67
2023-03-18T01:46:29.904Z,1007.73
2023-03-18T01:47:29.866Z,1007.75
2023-03-18T01:48:29.849Z,1007.74
2023-03-18T01:49:29.853Z,1007.74
2023-03-18T01:50:30.201Z,1007.84
2023-03-18T01:51:29.847Z,1007.86
2023-03-18T01:52:29.791Z,1007.85
2023-03-18T01:53:29.807Z,1007.90
2023-03-18T01:54:29.782Z,1007.87
2023-03-18T01:55:29.777Z,1007.83
2023-03-18T01:56:29.733Z,1007.75
2023-03-18T01:57:29.742Z,1007.66
2023-03-18T01:58:29.731Z,1007.68
2023-03-18T01:59:29.722Z,1007.79
2023-03-18T02:00:29.891Z,1007.78
2023-03-18T02:01:29.725Z,1007.77
2023-03-18T02:02:29.651Z,1007.82
2023-03-18T02:03:29.642Z,1007.81
2023-03-18T02:04:29.614Z,1007.77
2023-03-18T02:05:30.649Z,1007.75
2023-03-18T02:06:29.616Z,1007.72
2023-03-18T02:07:29.590Z,1007.69
2023-03-18T02:08:29.561Z,1007.68
2023-03-18T02:09:29.554Z,1007.60
2023-03-18T02:10:29.727Z,1007.60
2023-03-18T02:11:29.509Z,1007.61
2023-03-18T02:12:29.498Z,1007.60
2023-03-18T02:13:29.470Z,1007.67
2023-03-18T02:14:29.489Z,1007.65
2023-03-18T02:15:29.472Z,1007.67
2023-03-18T02:16:29.515Z,1007.65
2023-03-18T02:17:29.441Z,1007.64
2023-03-18T02:18:29.408Z,1007.64
2023-03-18T02:19:29.410Z,1007.64
2023-03-18T02:20:29.619Z,1007.63
2023-03-18T02:21:29.405Z,1007.60
2023-03-18T02:22:29.346Z,1007.62
2023-03-18T02:23:29.328Z,1007.62
2023-03-18T02:24:36.944Z,1007.63
2023-03-18T02:25:29.410Z,1007.63
2023-03-18T02:26:29.326Z,1007.62
2023-03-18T02:27:29.309Z,1007.64
2023-03-18T02:28:29.291Z,1007.66
2023-03-18T02:29:29.286Z,1007.68
2023-03-18T02:30:29.251Z,1007.68
2023-03-18T02:31:29.263Z,1007.70
2023-03-18T02:32:29.315Z,1007.75
2023-03-18T02:33:29.221Z,1007.78
2023-03-18T02:34:29.208Z,1007.79
2023-03-18T02:35:29.255Z,1007.80
2023-03-18T02:36:29.190Z,1007.81
2023-03-18T02:37:29.189Z,1007.82
2023-03-18T02:38:29.148Z,1007.84
2023-03-18T02:39:29.144Z,1007.87
2023-03-18T02:40:29.143Z,1007.80
2023-03-18T02:41:29.114Z,1007.78
2023-03-18T02:42:29.112Z,1007.76
2023-03-18T02:43:29.092Z,1007.75
2023-03-18T02:44:29.058Z,1007.70
2023-03-18T02:45:29.039Z,1007.66
2023-03-18T02:46:29.071Z,1007.70
2023-03-18T02:47:29.016Z,1007.67
2023-03-18T02:48:28.986Z,1007.71
2023-03-18T02:49:29.020Z,1007.71
2023-03-18T02:50:28.969Z,1007.70
2023-03-18T02:51:28.989Z,1007.72
2023-03-18T02:52:28.935Z,1007.73
2023-03-18T02:53:28.938Z,1007.70
2023-03-18T02:54:28.947Z,1007.70
2023-03-18T02:55:28.916Z,1007.70
2023-03-18T02:56:28.889Z,1007.68
2023-03-18T02:57:28.870Z,1007.75
2023-03-18T02:58:28.860Z,1007.74
2023-03-18T02:59:28.841Z,1007.75
2023-03-18T03:00:28.861Z,1007.78
2023-03-18T03:01:28.820Z,1007.75
2023-03-18T03:02:28.966Z,1007.79
2023-03-18T03:03:28.873Z,1007.75
2023-03-18T03:04:28.781Z,1007.81
2023-03-18T03:05:28.755Z,1007.83
2023-03-18T03:06:28.766Z,1007.86
2023-03-18T03:07:28.713Z,1007.85
2023-03-18T03:08:28.706Z,1007.89
2023-03-18T03:09:28.677Z,1007.90
2023-03-18T03:10:28.661Z,1007.92
2023-03-18T03:11:28.662Z,1007.93
2023-03-18T03:12:28.649Z,1007.91
2023-03-18T03:13:28.628Z,1007.88
2023-03-18T03:14:28.631Z,1007.89
2023-03-18T03:15:28.756Z,1007.91
2023-03-18T03:16:28.583Z,1007.87
2023-03-18T03:17:28.552Z,1007.88
2023-03-18T03:18:28.588Z,1007.87
2023-03-18T03:19:28.574Z,1007.90
2023-03-18T03:20:28.598Z,1007.88
2023-03-18T03:21:28.517Z,1007.91
2023-03-18T03:22:28.530Z,1007.91
2023-03-18T03:23:28.514Z,1007.93
2023-03-18T03:24:28.479Z,1007.93
2023-03-18T03:25:28.450Z,1007.92
2023-03-18T03:26:28.440Z,1007.91
2023-03-18T03:27:28.474Z,1007.90
2023-03-18T03:28:28.428Z,1007.91
2023-03-18T03:29:28.448Z,1007.91
2023-03-18T03:30:29.133Z,1007.88
2023-03-18T03:31:29.443Z,1007.91
2023-03-18T03:32:28.489Z,1007.90
2023-03-18T03:33:28.353Z,1007.92
2023-03-18T03:34:28.365Z,1007.86
2023-03-18T03:35:28.326Z,1007.89
2023-03-18T03:36:28.276Z,1007.88
2023-03-18T03:37:28.295Z,1007.91
2023-03-18T03:38:28.343Z,1007.95
2023-03-18T03:39:28.263Z,1007.94
2023-03-18T03:40:28.272Z,1007.94
2023-03-18T03:41:28.274Z,1007.96
2023-03-18T03:42:28.252Z,1007.97
2023-03-18T03:43:28.212Z,1008.02
2023-03-18T03:44:28.191Z,1008.04
2023-03-18T03:45:28.217Z,1008.04
2023-03-18T03:46:28.286Z,1008.04
2023-03-18T03:47:28.159Z,1008.06
2023-03-18T03:48:28.136Z,1008.05
2023-03-18T03:49:28.145Z,1008.09
2023-03-18T03:50:28.138Z,1008.05
2023-03-18T03:51:28.099Z,1008.10
2023-03-18T03:52:28.064Z,1008.09
2023-03-18T03:53:28.110Z,1008.08
2023-03-18T03:54:28.118Z,1008.06
2023-03-18T03:55:28.070Z,1008.07
2023-03-18T03:56:27.997Z,1008.11
2023-03-18T03:57:28.002Z,1008.10
2023-03-18T03:58:27.997Z,1008.12
2023-03-18T03:59:28.009Z,1008.12
2023-03-18T04:00:27.984Z,1008.11
2023-03-18T04:01:27.958Z,1008.12
2023-03-18T04:02:27.966Z,1008.17
2023-03-18T04:03:27.906Z,1008.19
2023-03-18T04:04:28.000Z,1008.20
2023-03-18T04:05:27.886Z,1008.19
2023-03-18T04:06:28.034Z,1008.22
2023-03-18T04:07:27.898Z,1008.26
2023-03-18T04:08:27.818Z,1008.21
2023-03-18T04:09:27.814Z,1008.23
2023-03-18T04:10:27.826Z,1008.23
2023-03-18T04:11:27.788Z,1008.26
2023-03-18T04:12:27.792Z,1008.24
2023-03-18T04:13:27.765Z,1008.23
2023-03-18T04:14:27.749Z,1008.26
2023-03-18T04:15:27.742Z,1008.24
2023-03-18T04:16:27.782Z,1008.29
2023-03-18T04:17:27.710Z,1008.27
2023-03-18T04:18:27.702Z,1008.25
2023-03-18T04:19:27.692Z,1008.31
2023-03-18T04:20:27.689Z,1008.28
2023-03-18T04:21:27.635Z,1008.30
2023-03-18T04:22:27.618Z,1008.34
2023-03-18T04:23:27.660Z,1008.39
2023-03-18T04:24:27.637Z,1008.40
2023-03-18T04:25:27.581Z,1008.38
2023-03-18T04:26:27.551Z,1008.39
2023-03-18T04:27:27.565Z,1008.41
2023-03-18T04:28:27.524Z,1008.34
2023-03-18T04:29:27.545Z,1008.38
2023-03-18T04:30:27.570Z,1008.37
2023-03-18T04:31:27.543Z,1008.33
2023-03-18T04:32:27.516Z,1008.36
2023-03-18T04:33:27.479Z,1008.36
2023-03-18T04:34:27.462Z,1008.37
2023-03-18T04:35:27.505Z,1008.37
2023-03-18T04:36:27.449Z,1008.35
2023-03-18T04:37:27.437Z,1008.36
2023-03-18T04:38:27.378Z,1008.39
2023-03-18T04:39:27.377Z,1008.38
2023-03-18T04:40:27.413Z,1008.40
2023-03-18T04:41:27.385Z,1008.39
2023-03-18T04:42:27.331Z,1008.40
2023-03-18T04:43:27.321Z,1008.41
2023-03-18T04:44:27.301Z,1008.42
2023-03-18T04:45:27.308Z,1008.46
2023-03-18T04:46:27.393Z,1008.48
2023-03-18T04:47:27.336Z,1008.47
2023-03-18T04:48:27.258Z,1008.53
2023-03-18T04:49:27.233Z,1008.50
2023-03-18T04:50:27.281Z,1008.48
2023-03-18T04:51:27.230Z,1008.49
2023-03-18T04:52:27.194Z,1008.54
2023-03-18T04:53:27.178Z,1008.52
2023-03-18T04:54:27.167Z,1008.53
2023-03-18T04:55:27.160Z,1008.53
2023-03-18T04:56:27.169Z,1008.53
2023-03-18T04:57:27.110Z,1008.53
2023-03-18T04:58:27.131Z,1008.58
2023-03-18T04:59:27.109Z,1008.56
2023-03-18T05:00:27.107Z,1008.50
2023-03-18T05:01:27.036Z,1008.51
2023-03-18T05:02:27.028Z,1008.54
2023-03-18T05:03:27.064Z,1008.54
2023-03-18T05:04:27.044Z,1008.60
2023-03-18T05:05:27.024Z,1008.60
2023-03-18T05:06:27.033Z,1008.60
2023-03-18T05:07:26.952Z,1008.62
2023-03-18T05:08:27.006Z,1008.64
2023-03-18T05:09:26.975Z,1008.65
2023-03-18T05:10:26.917Z,1008.64
2023-03-18T05:11:26.926Z,1008.63
2023-03-18T05:12:26.922Z,1008.62
2023-03-18T05:13:26.867Z,1008.62
2023-03-18T05:14:26.877Z,1008.64
2023-03-18T05:15:26.859Z,1008.65
2023-03-18T05:16:26.936Z,1008.69
2023-03-18T05:17:26.842Z,1008.64
2023-03-18T05:18:26.830Z,1008.61
2023-03-18T05:19:26.831Z,1008.65
2023-03-18T05:20:26.774Z,1008.64
2023-03-18T05:21:27.634Z,1008.66
2023-03-18T05:22:26.752Z,1008.68
2023-03-18T05:23:26.773Z,1008.69
2023-03-18T05:24:26.699Z,1008.67
2023-03-18T05:25:26.709Z,1008.67
2023-03-18T05:26:26.712Z,1008.70
2023-03-18T05:27:26.673Z,1008.69
2023-03-18T05:28:26.636Z,1008.72
2023-03-18T05:29:26.620Z,1008.70
2023-03-18T05:30:26.665Z,1008.66
2023-03-18T05:31:26.765Z,1008.73
2023-03-18T05:32:26.605Z,1008.72
2023-03-18T05:33:26.573Z,1008.70
2023-03-18T05:34:26.578Z,1008.75
2023-03-18T05:35:26.556Z,1008.69
2023-03-18T05:36:26.595Z,1008.75
2023-03-18T05:37:26.549Z,1008.76
2023-03-18T05:38:26.534Z,1008.79
2023-03-18T05:39:26.522Z,1008.74
2023-03-18T05:40:26.516Z,1008.76
2023-03-18T05:41:26.486Z,1008.78
2023-03-18T05:42:26.443Z,1008.78
2023-03-18T05:43:26.457Z,1008.78
2023-03-18T05:44:26.413Z,1008.77
2023-03-18T05:45:26.411Z,1008.80
2023-03-18T05:46:26.389Z,1008.80
2023-03-18T05:47:26.390Z,1008.77
2023-03-18T05:48:26.357Z,1008.82
2023-03-18T05:49:26.361Z,1008.83
2023-03-18T05:50:26.333Z,1008.83
2023-03-18T05:51:26.297Z,1008.84
2023-03-18T05:52:26.366Z,1008.85
2023-03-18T05:53:26.280Z,1008.83
2023-03-18T05:54:26.264Z,1008.84
2023-03-18T05:55:26.258Z,1008.88
2023-03-18T05:56:26.269Z,1008.89
2023-03-18T05:57:26.215Z,1008.92
2023-03-18T05:58:26.196Z,1008.92
2023-03-18T05:59:26.206Z,1008.96
2023-03-18T06:00:26.193Z,1008.95
2023-03-18T06:01:26.230Z,1008.93
2023-03-18T06:02:26.213Z,1008.95
2023-03-18T06:03:26.235Z,1008.93
2023-03-18T06:04:26.137Z,1008.92
2023-03-18T06:05:26.175Z,1008.93
2023-03-18T06:06:26.107Z,1008.99
2023-03-18T06:07:26.145Z,1008.97
2023-03-18T06:08:26.064Z,1008.93
2023-03-18T06:09:26.072Z,1008.94
2023-03-18T06:10:26.046Z,1008.98
2023-03-18T06:11:26.032Z,1009.01
2023-03-18T06:12:26.023Z,1009.01
2023-03-18T06:13:26.000Z,1009.02
2023-03-18T06:14:25.991Z,1009.05
2023-03-18T06:15:25.974Z,1009.01
2023-03-18T06:16:26.011Z,1009.04
2023-03-18T06:17:26.013Z,1009.03
2023-03-18T06:18:25.929Z,1009.05
2023-03-18T06:19:25.925Z,1009.04
2023-03-18T06:20:25.865Z,1009.03
2023-03-18T06:21:25.868Z,1009.07
2023-03-18T06:22:25.868Z,1009.09
2023-03-18T06:23:25.848Z,1009.08
2023-03-18T06:24:25.841Z,1009.14
2023-03-18T06:25:25.817Z,1009.10
2023-03-18T06:26:25.790Z,1009.12
2023-03-18T06:27:25.806Z,1009.13
2023-03-18T06:28:25.788Z,1009.12
2023-03-18T06:29:25.756Z,1009.16
2023-03-18T06:30:25.764Z,1009.17
2023-03-18T06:31:25.835Z,1009.19
2023-03-18T06:32:25.697Z,1009.20
2023-03-18T06:33:25.733Z,1009.22
2023-03-18T06:34:25.694Z,1009.25
2023-03-18T06:35:25.647Z,1009.26
2023-03-18T06:36:25.680Z,1009.28
2023-03-18T06:37:25.666Z,1009.26
2023-03-18T06:38:25.621Z,1009.27
2023-03-18T06:39:25.630Z,1009.28
2023-03-18T06:40:25.586Z,1009.27
2023-03-18T06:41:25.637Z,1009.29
2023-03-18T06:42:25.565Z,1009.31
2023-03-18T06:43:25.542Z,1009.27
2023-03-18T06:44:25.542Z,1009.32
2023-03-18T06:45:25.551Z,1009.33
2023-03-18T06:46:25.567Z,1009.29
2023-03-18T06:47:25.488Z,1009.33
2023-03-18T06:48:25.500Z,1009.33
2023-03-18T06:49:25.465Z,1009.37
2023-03-18T06:50:25.457Z,1009.35
2023-03-18T06:51:25.435Z,1009.36
2023-03-18T06:52:25.428Z,1009.37
2023-03-18T06:53:25.403Z,1009.36
2023-03-18T06:54:25.373Z,1009.35
2023-03-18T06:55:25.394Z,1009.36
2023-03-18T06:56:25.365Z,1009.38
2023-03-18T06:57:25.364Z,1009.36
2023-03-18T06:58:25.321Z,1009.34
2023-03-18T06:59:25.339Z,1009.35
2023-03-18T07:00:25.327Z,1009.34
2023-03-18T07:01:25.329Z,1009.33
2023-03-18T07:02:25.286Z,1009.25
2023-03-18T07:03:25.258Z,1009.25
2023-03-18T07:04:25.252Z,1009.28
2023-03-18T07:05:25.239Z,1009.26
2023-03-18T07:06:25.232Z,1009.30
2023-03-18T07:07:25.184Z,1009.29
2023-03-18T07:08:25.188Z,1009.33
2023-03-18T07:09:25.171Z,1009.33
2023-03-18T07:10:25.153Z,1009.33
2023-03-18T07:11:25.163Z,1009.36
2023-03-18T07:12:25.161Z,1009.35
2023-03-18T07:13:25.113Z,1009.40
2023-03-18T07:14:25.107Z,1009.36
2023-03-18T07:15:25.101Z,1009.42
2023-03-18T07:16:25.104Z,1009.38
2023-03-18T07:17:25.096Z,1009.46
2023-03-18T07:18:25.066Z,1009.45
2023-03-18T07:19:25.013Z,1009.44
2023-03-18T07:20:25.035Z,1009.37
2023-03-18T07:21:25.012Z,1009.40
2023-03-18T07:22:25.032Z,1009.43
2023-03-18T07:23:25.018Z,1009.43
2023-03-18T07:24:24.950Z,1009.44
2023-03-18T07:25:24.931Z,1009.45
2023-03-18T07:26:24.921Z,1009.46
2023-03-18T07:27:24.903Z,1009.46
2023-03-18T07:28:24.930Z,1009.44
2023-03-18T07:29:24.917Z,1009.39
2023-03-18T07:30:24.871Z,1009.48
2023-03-18T07:31:24.904Z,1009.45
2023-03-18T07:32:24.854Z,1009.49
2023-03-18T07:33:24.834Z,1009.49
2023-03-18T07:34:24.828Z,1009.47
2023-03-18T07:35:24.791Z,1009.48
2023-03-18T07:36:24.811Z,1009.44
2023-03-18T07:37:24.885Z,1009.47
2023-03-18T07:38:24.772Z,1009.49
2023-03-18T07:39:24.731Z,1009.48
2023-03-18T07:40:24.787Z,1009.45
2023-03-18T07:41:24.712Z,1009.43
2023-03-18T07:42:24.718Z,1009.42
2023-03-18T07:43:24.706Z,1009.42
2023-03-18T07:44:24.671Z,1009.41
2023-03-18T07:45:24.666Z,1009.43
2023-03-18T07:46:24.679Z,1009.42
2023-03-18T07:47:24.632Z,1009.44
2023-03-18T07:48:24.606Z,1009.49
2023-03-18T07:49:24.605Z,1009.49
2023-03-18T07:50:24.632Z,1009.49
2023-03-18T07:51:24.592Z,1009.50
2023-03-18T07:52:24.608Z,1009.58
2023-03-18T07:53:24.551Z,1009.55
2023-03-18T07:54:24.557Z,1009.58
2023-03-18T07:55:24.521Z,1009.64
2023-03-18T07:56:24.564Z,1009.59
2023-03-18T07:57:24.739Z,1009.63
2023-03-18T07:58:24.491Z,1009.59
2023-03-18T07:59:24.476Z,1009.66
2023-03-18T08:00:24.449Z,1009.65
2023-03-18T08:01:24.452Z,1009.66
2023-03-18T08:02:24.452Z,1009.68
2023-03-18T08:03:24.416Z,1009.69
2023-03-18T08:04:24.448Z,1009.72
2023-03-18T08:05:24.388Z,1009.70
2023-03-18T08:06:24.436Z,1009.70
2023-03-18T08:07:24.383Z,1009.72
2023-03-18T08:08:24.415Z,1009.68
2023-03-18T08:09:24.332Z,1009.70
2023-03-18T08:10:24.351Z,1009.75
2023-03-18T08:11:24.308Z,1009.75
2023-03-18T08:12:24.309Z,1009.77
2023-03-18T08:13:24.273Z,1009.77
2023-03-18T08:14:24.287Z,1009.80
2023-03-18T08:15:24.380Z,1009.78
2023-03-18T08:16:24.271Z,1009.81
2023-03-18T08:17:24.300Z,1009.84
2023-03-18T08:18:24.248Z,1009.83
2023-03-18T08:19:24.216Z,1009.85
2023-03-18T08:20:24.190Z,1009.89
2023-03-18T08:21:24.198Z,1009.88
2023-03-18T08:22:24.287Z,1009.92
2023-03-18T08:23:24.147Z,1009.90
2023-03-18T08:24:24.126Z,1009.88
2023-03-18T08:25:24.215Z,1009.92
2023-03-18T08:26:24.117Z,1009.91
2023-03-18T08:27:24.136Z,1010.00
2023-03-18T08:28:24.137Z,1010.04
2023-03-18T08:29:24.068Z,1010.02
2023-03-18T08:30:24.058Z,1010.05
2023-03-18T08:31:24.088Z,1010.06
2023-03-18T08:32:31.698Z,1010.08
2023-03-18T08:33:24.082Z,1010.06
2023-03-18T08:34:24.107Z,1010.08
2023-03-18T08:35:24.062Z,1010.09
2023-03-18T08:36:23.994Z,1010.05
2023-03-18T08:37:23.959Z,1010.07
2023-03-18T08:38:23.977Z,1010.08
2023-03-18T08:39:24.006Z,1010.10
2023-03-18T08:40:24.056Z,1010.11
2023-03-18T08:41:24.004Z,1010.13
2023-03-18T08:42:23.910Z,1010.13
2023-03-18T08:43:23.969Z,1010.12
2023-03-18T08:44:23.917Z,1010.16
2023-03-18T08:45:23.992Z,1010.15
2023-03-18T08:46:23.924Z,1010.16
2023-03-18T08:47:23.836Z,1010.18
2023-03-18T08:48:23.813Z,1010.17
2023-03-18T08:49:23.786Z,1010.17
2023-03-18T08:50:24.158Z,1010.19
2023-03-18T08:51:23.806Z,1010.25
2023-03-18T08:52:23.807Z,1010.23
2023-03-18T08:53:23.853Z,1010.16
2023-03-18T08:54:23.789Z,1010.18
2023-03-18T08:55:23.760Z,1010.20
2023-03-18T08:56:23.876Z,1010.18
2023-03-18T08:57:23.831Z,1010.19
2023-03-18T08:58:23.706Z,1010.14
2023-03-18T08:59:23.666Z,1010.16
2023-03-18T09:00:23.720Z,1010.15
2023-03-18T09:01:23.712Z,1010.13
2023-03-18T09:02:23.732Z,1010.07
2023-03-18T09:03:23.652Z,1010.07
2023-03-18T09:04:23.619Z,1010.10
2023-03-18T09:05:23.626Z,1010.13
2023-03-18T09:06:23.636Z,1010.09
2023-03-18T09:07:23.670Z,1010.06
2023-03-18T09:08:23.582Z,1010.09
2023-03-18T09:09:31.046Z,1010.04
2023-03-18T09:10:24.558Z,1010.12
2023-03-18T09:11:23.509Z,1010.11
2023-03-18T09:12:23.548Z,1010.12
2023-03-18T09:13:23.510Z,1010.11
2023-03-18T09:14:23.551Z,1010.12
2023-03-18T09:15:23.477Z,1010.14
2023-03-18T09:16:23.534Z,1010.16
2023-03-18T09:17:31.985Z,1010.13
2023-03-18T09:18:24.484Z,1010.17
2023-03-18T09:19:23.443Z,1010.18
2023-03-18T09:20:23.486Z,1010.20
2023-03-18T09:21:23.433Z,1010.21
2023-03-18T09:22:23.407Z,1010.19
2023-03-18T09:23:23.375Z,1010.18
2023-03-18T09:24:23.364Z,1010.23
2023-03-18T09:25:23.330Z,1010.20
2023-03-18T09:26:23.325Z,1010.20
2023-03-18T09:27:23.379Z,1010.21
2023-03-18T09:28:23.396Z,1010.24
2023-03-18T09:29:23.267Z,1010.22
2023-03-18T09:30:23.400Z,1010.20
2023-03-18T09:31:23.316Z,1010.18
2023-03-18T09:32:23.333Z,1010.20
2023-03-18T09:33:23.279Z,1010.18
2023-03-18T09:34:23.325Z,1010.20
2023-03-18T09:35:23.265Z,1010.20
2023-03-18T09:36:23.213Z,1010.17
2023-03-18T09:37:23.192Z,1010.15
2023-03-18T09:38:23.169Z,1010.15
2023-03-18T09:39:23.186Z,1010.15
2023-03-18T09:40:23.160Z,1010.15
2023-03-18T09:41:23.116Z,1010.22
2023-03-18T09:42:24.048Z,1010.07
2023-03-18T09:43:23.164Z,1010.13
2023-03-18T09:44:23.055Z,1010.13
2023-03-18T09:45:23.024Z,1010.16
2023-03-18T09:46:23.202Z,1010.15
2023-03-18T09:47:23.132Z,1010.13
2023-03-18T09:48:22.995Z,1010.12
2023-03-18T09:49:23.172Z,1010.09
2023-03-18T09:50:22.993Z,1010.14
2023-03-18T09:51:22.996Z,1010.14
2023-03-18T09:52:23.035Z,1010.11
2023-03-18T09:53:22.970Z,1010.12
2023-03-18T09:54:22.946Z,1010.15
2023-03-18T09:55:23.030Z,1010.16
2023-03-18T09:56:22.899Z,1010.18
2023-03-18T09:57:22.983Z,1010.18
2023-03-18T09:58:22.931Z,1010.19
2023-03-18T09:59:22.851Z,1010.20
2023-03-18T10:00:22.843Z,1010.22
2023-03-18T10:01:23.042Z,1010.20
2023-03-18T10:02:22.916Z,1010.18
2023-03-18T10:03:22.791Z,1010.21
2023-03-18T10:04:22.806Z,1010.16
2023-03-18T10:05:22.808Z,1010.22
2023-03-18T10:06:22.818Z,1010.18
2023-03-18T10:07:22.737Z,1010.21
2023-03-18T10:08:22.808Z,1010.18
2023-03-18T10:09:22.738Z,1010.11
2023-03-18T10:10:22.687Z,1010.11
2023-03-18T10:11:22.744Z,1010.11
2023-03-18T10:12:22.730Z,1010.15
2023-03-18T10:13:22.696Z,1010.09
2023-03-18T10:14:22.675Z,1010.13
2023-03-18T10:15:22.643Z,1010.07
2023-03-18T10:16:22.786Z,1010.09
2023-03-18T10:17:22.625Z,1010.03
2023-03-18T10:18:22.608Z,1010.08
2023-03-18T10:19:22.649Z,1010.08
2023-03-18T10:20:22.579Z,1010.08
2023-03-18T10:21:22.591Z,1010.09
2023-03-18T10:22:22.629Z,1010.08
2023-03-18T10:23:22.567Z,1010.07
2023-03-18T10:24:22.517Z,1010.10
2023-03-18T10:25:22.562Z,1010.08
2023-03-18T10:26:22.531Z,1010.12
2023-03-18T10:27:22.512Z,1010.10
2023-03-18T10:28:22.449Z,1010.10
2023-03-18T10:29:22.441Z,1010.11
2023-03-18T10:30:22.518Z,1010.06
2023-03-18T10:31:22.507Z,1010.04
2023-03-18T10:32:22.413Z,1009.99
2023-03-18T10:33:22.454Z,1010.01
2023-03-18T10:34:22.408Z,1009.95
2023-03-18T10:35:22.382Z,1009.96
2023-03-18T10:36:22.360Z,1009.93
2023-03-18T10:37:22.326Z,1009.92
2023-03-18T10:38:22.330Z,1009.94
2023-03-18T10:39:22.344Z,1009.94
2023-03-18T10:40:22.290Z,1009.95
2023-03-18T10:41:24.250Z,1009.92
2023-03-18T10:42:22.314Z,1009.96
2023-03-18T10:43:22.274Z,1009.95
2023-03-18T10:44:22.315Z,1010.01
2023-03-18T10:45:22.319Z,1010.02
2023-03-18T10:46:22.525Z,1010.06
2023-03-18T10:47:22.414Z,1010.04
2023-03-18T10:48:22.216Z,1010.08
2023-03-18T10:49:22.202Z,1010.06
2023-03-18T10:50:22.193Z,1010.11
2023-03-18T10:51:22.146Z,1010.11
2023-03-18T10:52:22.212Z,1010.06
2023-03-18T10:53:22.192Z,1010.09
2023-03-18T10:54:22.181Z,1010.11
2023-03-18T10:55:22.098Z,1010.03
2023-03-18T10:56:22.101Z,1010.11
2023-03-18T10:57:22.113Z,1010.05
2023-03-18T10:58:22.066Z,1010.03
2023-03-18T10:59:22.182Z,1010.03
2023-03-18T11:00:22.049Z,1010.02
2023-03-18T11:01:23.110Z,1010.03
2023-03-18T11:02:22.024Z,1010.01
2023-03-18T11:03:21.973Z,1010.02
2023-03-18T11:04:22.065Z,1009.97
2023-03-18T11:05:21.975Z,1009.97
2023-03-18T11:06:21.931Z,1009.97
2023-03-18T11:07:21.920Z,1009.94
2023-03-18T11:08:21.924Z,1009.94
2023-03-18T11:09:21.992Z,1009.89
2023-03-18T11:10:22.007Z,1009.86
2023-03-18T11:11:21.881Z,1009.87
2023-03-18T11:12:21.877Z,1009.85
2023-03-18T11:13:21.940Z,1009.81
2023-03-18T11:14:21.845Z,1009.72
2023-03-18T11:15:21.843Z,1009.71
2023-03-18T11:16:21.841Z,1009.75
2023-03-18T11:17:21.796Z,1009.72
2023-03-18T11:18:22.050Z,1009.75
2023-03-18T11:19:21.828Z,1009.74
2023-03-18T11:20:21.927Z,1009.76
2023-03-18T11:21:21.757Z,1009.73
2023-03-18T11:22:21.811Z,1009.76
2023-03-18T11:23:21.793Z,1009.79
2023-03-18T11:24:21.774Z,1009.80
2023-03-18T11:25:21.753Z,1009.81
2023-03-18T11:26:21.699Z,1009.87
2023-03-18T11:27:21.812Z,1009.92
2023-03-18T11:28:21.620Z,1009.90
2023-03-18T11:29:21.655Z,1009.91
2023-03-18T11:30:33.612Z,1009.87
2023-03-18T11:31:22.639Z,1009.86
2023-03-18T11:32:21.717Z,1009.81
2023-03-18T11:33:21.670Z,1009.81
2023-03-18T11:34:21.608Z,1009.85
2023-03-18T11:35:21.694Z,1009.85
2023-03-18T11:36:21.558Z,1009.87
2023-03-18T11:37:21.545Z,1009.88
2023-03-18T11:38:21.547Z,1009.83
2023-03-18T11:39:21.500Z,1009.84
2023-03-18T11:40:21.595Z,1009.83
2023-03-18T11:41:21.467Z,1009.82
2023-03-18T11:42:21.482Z,1009.77
2023-03-18T11:43:21.491Z,1009.81
2023-03-18T11:44:21.429Z,1009.81
2023-03-18T11:45:21.417Z,1009.84
2023-03-18T11:46:21.449Z,1009.90
2023-03-18T11:47:21.434Z,1009.81
2023-03-18T11:48:21.370Z,1009.79
2023-03-18T11:49:21.411Z,1009.80
2023-03-18T11:50:21.313Z,1009.78
2023-03-18T11:51:21.403Z,1009.74
2023-03-18T11:52:21.336Z,1009.81
2023-03-18T11:53:21.284Z,1009.73
2023-03-18T11:54:21.317Z,1009.80
2023-03-18T11:55:21.322Z,1009.80
2023-03-18T11:56:21.277Z,1009.85
2023-03-18T11:57:21.275Z,1009.78
2023-03-18T11:58:21.223Z,1009.73
2023-03-18T11:59:21.231Z,1009.74
2023-03-18T12:00:21.249Z,1009.77
2023-03-18T12:01:21.253Z,1009.82
2023-03-18T12:02:21.352Z,1009.83
2023-03-18T12:03:21.244Z,1009.74
2023-03-18T12:04:21.180Z,1009.78
2023-03-18T12:05:21.205Z,1009.74